Balhash, Kazakhstan
Current Conditions -  °F | °C
As of 9:30 AM on Sunday 26 Oct 2014 (Local Time) from UAAH Reporting Station
Overcast Overcast  
Wind Chill: 45°   Ceiling: 2300
Heat Index: 45°   Visibility: 6mi
Dew Point: 37°   Wind: 2mph
Humidity: 76%   Direction: 20°NNE
Pressure: 29.83"   Gusts: NA
Location:  46.8°N, 75.08°E
Report Text: UAAH 260330Z 02001MPS 9999 SCT009 OVC023 07/03 Q1010 R23/0///60NOSIG RMK QFE719/0959
Loading
Personal Weather Stations






























Interactive Weather Map
Tropical Storm Tracking
New forecast layout! Learn more

10-Day Weather Forecast

Advertisements
Track Severe Weather on mobile